sensor_id;sensor_type;location;lat;lon;timestamp;pressure;altitude;pressure_sealevel;temperature;humidity
73024;BME280;61199;47.526;8.538;2022-07-23T00:00:55;96646.47;;;26.45;56.46
73024;BME280;61199;47.526;8.538;2022-07-23T00:03:22;96653.44;;;26.52;55.80
73024;BME280;61199;47.526;8.538;2022-07-23T00:05:49;96651.41;;;26.48;55.77
73024;BME280;61199;47.526;8.538;2022-07-23T00:08:16;96662.56;;;26.15;56.61
73024;BME280;61199;47.526;8.538;2022-07-23T00:10:42;96649.50;;;26.19;56.93
73024;BME280;61199;47.526;8.538;2022-07-23T00:13:09;96646.81;;;26.19;57.08
73024;BME280;61199;47.526;8.538;2022-07-23T00:15:35;96628.63;;;26.03;57.28
73024;BME280;61199;47.526;8.538;2022-07-23T00:18:02;96621.47;;;25.97;57.41
73024;BME280;61199;47.526;8.538;2022-07-23T00:20:28;96622.41;;;25.84;57.74
73024;BME280;61199;47.526;8.538;2022-07-23T00:22:55;96605.34;;;25.97;57.68
73024;BME280;61199;47.526;8.538;2022-07-23T00:25:22;96601.47;;;26.11;57.73
73024;BME280;61199;47.526;8.538;2022-07-23T00:27:55;96608.47;;;26.12;58.16
73024;BME280;61199;47.526;8.538;2022-07-23T00:30:21;96609.22;;;26.01;58.47
73024;BME280;61199;47.526;8.538;2022-07-23T00:32:50;96610.28;;;26.00;57.59
73024;BME280;61199;47.526;8.538;2022-07-23T00:35:26;96606.53;;;26.01;57.52
73024;BME280;61199;47.526;8.538;2022-07-23T00:37:54;96596.53;;;26.08;56.60
73024;BME280;61199;47.526;8.538;2022-07-23T00:40:20;96591.91;;;26.15;56.67
73024;BME280;61199;47.526;8.538;2022-07-23T00:42:47;96583.69;;;26.10;56.57
73024;BME280;61199;47.526;8.538;2022-07-23T00:45:14;96571.78;;;26.06;57.21
73024;BME280;61199;47.526;8.538;2022-07-23T00:47:40;96557.66;;;26.10;57.09
73024;BME280;61199;47.526;8.538;2022-07-23T00:50:08;96552.75;;;26.07;57.37
73024;BME280;61199;47.526;8.538;2022-07-23T00:52:36;96542.66;;;26.21;56.71
73024;BME280;61199;47.526;8.538;2022-07-23T00:55:03;96539.69;;;26.11;57.25
73024;BME280;61199;47.526;8.538;2022-07-23T00:57:30;96524.16;;;26.13;57.04
73024;BME280;61199;47.526;8.538;2022-07-23T00:59:57;96509.31;;;26.10;56.62
73024;BME280;61199;47.526;8.538;2022-07-23T01:02:25;96494.00;;;25.99;56.18
73024;BME280;61199;47.526;8.538;2022-07-23T01:04:52;96493.75;;;26.01;56.39
73024;BME280;61199;47.526;8.538;2022-07-23T01:07:19;96505.78;;;25.98;56.08
73024;BME280;61199;47.526;8.538;2022-07-23T01:09:45;96517.41;;;25.92;56.11
73024;BME280;61199;47.526;8.538;2022-07-23T01:12:12;96516.59;;;25.92;55.01
73024;BME280;61199;47.526;8.538;2022-07-23T01:14:39;96520.00;;;25.99;54.85
73024;BME280;61199;47.526;8.538;2022-07-23T01:17:05;96516.91;;;25.84;55.12
73024;BME280;61199;47.526;8.538;2022-07-23T01:19:32;96517.94;;;25.65;55.85
73024;BME280;61199;47.526;8.538;2022-07-23T01:22:01;96530.75;;;25.81;56.00
73024;BME280;61199;47.526;8.538;2022-07-23T01:24:28;96527.63;;;25.84;54.81
73024;BME280;61199;47.526;8.538;2022-07-23T01:26:55;96510.06;;;25.88;54.02
73024;BME280;61199;47.526;8.538;2022-07-23T01:29:21;96506.47;;;25.76;54.95
73024;BME280;61199;47.526;8.538;2022-07-23T01:31:48;96515.09;;;25.78;54.60
73024;BME280;61199;47.526;8.538;2022-07-23T01:34:14;96507.38;;;25.70;55.67
73024;BME280;61199;47.526;8.538;2022-07-23T01:36:41;96505.84;;;25.74;54.63
73024;BME280;61199;47.526;8.538;2022-07-23T01:39:07;96496.16;;;25.73;54.37
73024;BME280;61199;47.526;8.538;2022-07-23T01:41:34;96493.66;;;25.60;54.80
73024;BME280;61199;47.526;8.538;2022-07-23T01:44:01;96502.66;;;25.65;54.38
73024;BME280;61199;47.526;8.538;2022-07-23T01:46:27;96508.13;;;25.59;54.30
73024;BME280;61199;47.526;8.538;2022-07-23T01:48:54;96514.53;;;25.58;54.24
73024;BME280;61199;47.526;8.538;2022-07-23T01:51:20;96518.72;;;25.54;54.23
73024;BME280;61199;47.526;8.538;2022-07-23T01:53:46;96519.66;;;25.59;54.98
73024;BME280;61199;47.526;8.538;2022-07-23T01:56:13;96525.72;;;25.55;56.57
73024;BME280;61199;47.526;8.538;2022-07-23T01:58:41;96505.91;;;25.56;56.36
73024;BME280;61199;47.526;8.538;2022-07-23T02:01:07;96506.91;;;25.55;56.11
73024;BME280;61199;47.526;8.538;2022-07-23T02:03:34;96497.25;;;25.54;56.83
73024;BME280;61199;47.526;8.538;2022-07-23T02:06:00;96496.94;;;25.44;55.42
73024;BME280;61199;47.526;8.538;2022-07-23T02:08:26;96492.41;;;25.44;55.64
73024;BME280;61199;47.526;8.538;2022-07-23T02:10:53;96499.78;;;25.49;54.87
73024;BME280;61199;47.526;8.538;2022-07-23T02:13:19;96513.34;;;25.54;56.29
73024;BME280;61199;47.526;8.538;2022-07-23T02:15:46;96523.69;;;25.50;57.61
73024;BME280;61199;47.526;8.538;2022-07-23T02:18:13;96522.97;;;25.43;56.85
73024;BME280;61199;47.526;8.538;2022-07-23T02:20:40;96513.63;;;25.28;55.54
73024;BME280;61199;47.526;8.538;2022-07-23T02:23:06;96510.81;;;25.23;54.25
73024;BME280;61199;47.526;8.538;2022-07-23T02:25:33;96518.50;;;25.37;54.78
73024;BME280;61199;47.526;8.538;2022-07-23T02:28:00;96509.09;;;25.46;56.04
73024;BME280;61199;47.526;8.538;2022-07-23T02:30:26;96496.38;;;25.24;57.34
73024;BME280;61199;47.526;8.538;2022-07-23T02:32:53;96503.41;;;25.18;58.65
73024;BME280;61199;47.526;8.538;2022-07-23T02:35:19;96517.75;;;24.88;59.31
73024;BME280;61199;47.526;8.538;2022-07-23T02:37:45;96526.31;;;24.47;60.71
73024;BME280;61199;47.526;8.538;2022-07-23T02:40:13;96539.06;;;24.52;60.82
73024;BME280;61199;47.526;8.538;2022-07-23T02:42:40;96543.34;;;24.59;60.42
73024;BME280;61199;47.526;8.538;2022-07-23T02:45:07;96527.66;;;24.63;59.44
73024;BME280;61199;47.526;8.538;2022-07-23T02:47:33;96523.66;;;24.72;58.67
73024;BME280;61199;47.526;8.538;2022-07-23T02:50:00;96509.66;;;24.70;58.81
73024;BME280;61199;47.526;8.538;2022-07-23T02:52:26;96495.78;;;24.55;58.77
73024;BME280;61199;47.526;8.538;2022-07-23T02:54:52;96502.66;;;24.44;59.03
73024;BME280;61199;47.526;8.538;2022-07-23T02:57:19;96497.78;;;24.59;58.42
73024;BME280;61199;47.526;8.538;2022-07-23T02:59:45;96507.63;;;24.41;59.00
73024;BME280;61199;47.526;8.538;2022-07-23T03:02:11;96530.88;;;24.40;58.67
73024;BME280;61199;47.526;8.538;2022-07-23T03:04:38;96528.63;;;24.13;60.41
73024;BME280;61199;47.526;8.538;2022-07-23T03:07:04;96519.13;;;23.29;62.58
73024;BME280;61199;47.526;8.538;2022-07-23T03:09:31;96526.03;;;23.43;62.55
73024;BME280;61199;47.526;8.538;2022-07-23T03:11:57;96553.09;;;23.73;61.60
73024;BME280;61199;47.526;8.538;2022-07-23T03:14:23;96572.44;;;23.88;60.09
73024;BME280;61199;47.526;8.538;2022-07-23T03:16:50;96578.94;;;23.98;60.19
73024;BME280;61199;47.526;8.538;2022-07-23T03:19:16;96572.97;;;23.39;62.08
73024;BME280;61199;47.526;8.538;2022-07-23T03:21:42;96551.22;;;22.90;63.87
73024;BME280;61199;47.526;8.538;2022-07-23T03:24:09;96530.44;;;23.18;63.45
73024;BME280;61199;47.526;8.538;2022-07-23T03:26:36;96520.09;;;23.41;62.56
73024;BME280;61199;47.526;8.538;2022-07-23T03:29:03;96519.00;;;23.62;62.10
73024;BME280;61199;47.526;8.538;2022-07-23T03:31:30;96525.97;;;23.63;62.42
73024;BME280;61199;47.526;8.538;2022-07-23T03:33:57;96529.06;;;23.66;61.79
73024;BME280;61199;47.526;8.538;2022-07-23T03:36:24;96556.34;;;23.81;62.09
73024;BME280;61199;47.526;8.538;2022-07-23T03:38:51;96578.78;;;22.52;66.23
73024;BME280;61199;47.526;8.538;2022-07-23T03:41:18;96552.47;;;22.75;65.52
73024;BME280;61199;47.526;8.538;2022-07-23T03:43:45;96523.25;;;23.19;64.34
73024;BME280;61199;47.526;8.538;2022-07-23T03:46:12;96519.00;;;23.62;63.00
73024;BME280;61199;47.526;8.538;2022-07-23T03:48:38;96521.75;;;23.93;62.27
73024;BME280;61199;47.526;8.538;2022-07-23T03:51:04;96519.22;;;24.04;61.56
73024;BME280;61199;47.526;8.538;2022-07-23T03:53:31;96524.47;;;24.17;61.30
73024;BME280;61199;47.526;8.538;2022-07-23T03:55:58;96565.28;;;24.13;60.95
73024;BME280;61199;47.526;8.538;2022-07-23T03:58:24;96621.38;;;24.01;61.02
73024;BME280;61199;47.526;8.538;2022-07-23T04:00:51;96665.13;;;23.56;62.16
73024;BME280;61199;47.526;8.538;2022-07-23T04:03:18;96670.88;;;23.27;63.40
73024;BME280;61199;47.526;8.538;2022-07-23T04:05:44;96602.97;;;23.48;62.93
73024;BME280;61199;47.526;8.538;2022-07-23T04:08:11;96555.22;;;23.64;62.87
73024;BME280;61199;47.526;8.538;2022-07-23T04:10:37;96520.94;;;23.79;63.39
73024;BME280;61199;47.526;8.538;2022-07-23T04:13:03;96531.06;;;23.77;64.06
73024;BME280;61199;47.526;8.538;2022-07-23T04:15:30;96543.41;;;23.78;64.35
73024;BME280;61199;47.526;8.538;2022-07-23T04:17:56;96567.09;;;23.75;64.22
73024;BME280;61199;47.526;8.538;2022-07-23T04:20:22;96565.00;;;23.90;63.44
73024;BME280;61199;47.526;8.538;2022-07-23T04:22:49;96563.75;;;23.79;63.85
73024;BME280;61199;47.526;8.538;2022-07-23T04:25:17;96567.03;;;23.94;63.73
73024;BME280;61199;47.526;8.538;2022-07-23T04:27:43;96577.31;;;23.97;63.56
73024;BME280;61199;47.526;8.538;2022-07-23T04:30:10;96595.03;;;23.92;64.24
73024;BME280;61199;47.526;8.538;2022-07-23T04:32:36;96605.78;;;23.85;63.59
73024;BME280;61199;47.526;8.538;2022-07-23T04:35:03;96611.94;;;23.92;63.51
73024;BME280;61199;47.526;8.538;2022-07-23T04:37:29;96635.38;;;23.97;63.21
73024;BME280;61199;47.526;8.538;2022-07-23T04:39:55;96655.97;;;23.96;62.98
73024;BME280;61199;47.526;8.538;2022-07-23T04:42:22;96663.78;;;23.91;63.83
73024;BME280;61199;47.526;8.538;2022-07-23T04:44:48;96679.06;;;23.71;64.68
73024;BME280;61199;47.526;8.538;2022-07-23T04:47:14;96659.75;;;23.63;65.06
73024;BME280;61199;47.526;8.538;2022-07-23T04:49:41;96649.84;;;23.70;65.40
73024;BME280;61199;47.526;8.538;2022-07-23T04:52:07;96662.78;;;23.79;65.53
73024;BME280;61199;47.526;8.538;2022-07-23T04:54:34;96671.66;;;23.86;65.98
73024;BME280;61199;47.526;8.538;2022-07-23T04:57:00;96632.13;;;23.75;65.88
73024;BME280;61199;47.526;8.538;2022-07-23T04:59:26;96646.94;;;23.71;66.29
73024;BME280;61199;47.526;8.538;2022-07-23T05:01:53;96653.97;;;23.85;65.14
73024;BME280;61199;47.526;8.538;2022-07-23T05:04:19;96623.47;;;23.86;64.89
73024;BME280;61199;47.526;8.538;2022-07-23T05:06:46;96624.50;;;23.85;65.14
73024;BME280;61199;47.526;8.538;2022-07-23T05:09:12;96650.25;;;23.86;65.43
73024;BME280;61199;47.526;8.538;2022-07-23T05:11:38;96638.25;;;23.82;65.13
73024;BME280;61199;47.526;8.538;2022-07-23T05:14:05;96610.50;;;23.83;65.91
73024;BME280;61199;47.526;8.538;2022-07-23T05:16:31;96623.84;;;23.96;65.73
73024;BME280;61199;47.526;8.538;2022-07-23T05:18:57;96609.78;;;24.07;65.17
73024;BME280;61199;47.526;8.538;2022-07-23T05:21:24;96630.03;;;23.90;65.48
73024;BME280;61199;47.526;8.538;2022-07-23T05:23:51;96635.34;;;24.03;65.30
73024;BME280;61199;47.526;8.538;2022-07-23T05:26:17;96631.03;;;23.96;64.86
73024;BME280;61199;47.526;8.538;2022-07-23T05:28:47;96616.00;;;24.01;64.60
73024;BME280;61199;47.526;8.538;2022-07-23T05:31:15;96619.09;;;23.98;64.65
73024;BME280;61199;47.526;8.538;2022-07-23T05:33:42;96624.03;;;24.01;64.30
73024;BME280;61199;47.526;8.538;2022-07-23T05:36:09;96628.84;;;23.86;65.15
73024;BME280;61199;47.526;8.538;2022-07-23T05:38:35;96634.84;;;23.56;65.81
73024;BME280;61199;47.526;8.538;2022-07-23T05:41:02;96640.84;;;22.93;68.92
73024;BME280;61199;47.526;8.538;2022-07-23T05:43:28;96646.16;;;22.47;70.97
73024;BME280;61199;47.526;8.538;2022-07-23T05:45:55;96637.03;;;22.35;71.96
73024;BME280;61199;47.526;8.538;2022-07-23T05:48:21;96626.34;;;22.35;71.63
73024;BME280;61199;47.526;8.538;2022-07-23T05:50:48;96618.03;;;22.64;71.69
73024;BME280;61199;47.526;8.538;2022-07-23T05:53:14;96622.78;;;22.75;70.53
73024;BME280;61199;47.526;8.538;2022-07-23T05:55:41;96648.25;;;22.97;70.19
73024;BME280;61199;47.526;8.538;2022-07-23T05:58:07;96615.78;;;23.00;70.04
73024;BME280;61199;47.526;8.538;2022-07-23T06:00:35;96617.00;;;23.04;69.97
73024;BME280;61199;47.526;8.538;2022-07-23T06:03:01;96627.72;;;23.17;69.18
73024;BME280;61199;47.526;8.538;2022-07-23T06:05:28;96622.53;;;23.35;69.30
73024;BME280;61199;47.526;8.538;2022-07-23T06:07:54;96618.22;;;23.34;69.21
73024;BME280;61199;47.526;8.538;2022-07-23T06:10:21;96621.50;;;23.36;69.51
73024;BME280;61199;47.526;8.538;2022-07-23T06:12:47;96626.44;;;23.46;68.21
73024;BME280;61199;47.526;8.538;2022-07-23T06:15:13;96656.03;;;23.64;67.41
73024;BME280;61199;47.526;8.538;2022-07-23T06:17:40;96672.91;;;22.73;71.24
73024;BME280;61199;47.526;8.538;2022-07-23T06:20:08;96671.94;;;21.80;74.81
73024;BME280;61199;47.526;8.538;2022-07-23T06:22:35;96679.34;;;21.85;75.01
73024;BME280;61199;47.526;8.538;2022-07-23T06:25:02;96675.16;;;21.69;75.38
73024;BME280;61199;47.526;8.538;2022-07-23T06:27:28;96687.31;;;21.78;75.64
73024;BME280;61199;47.526;8.538;2022-07-23T06:29:54;96698.84;;;21.85;74.88
73024;BME280;61199;47.526;8.538;2022-07-23T06:32:21;96697.56;;;21.75;75.41
73024;BME280;61199;47.526;8.538;2022-07-23T06:34:47;96704.41;;;21.56;76.36
73024;BME280;61199;47.526;8.538;2022-07-23T06:37:14;96701.88;;;21.48;76.44
73024;BME280;61199;47.526;8.538;2022-07-23T06:39:41;96710.88;;;21.41;77.49
73024;BME280;61199;47.526;8.538;2022-07-23T06:42:07;96692.09;;;21.55;76.77
73024;BME280;61199;47.526;8.538;2022-07-23T06:44:34;96689.59;;;21.81;76.12
73024;BME280;61199;47.526;8.538;2022-07-23T06:47:00;96678.63;;;22.04;75.27
73024;BME280;61199;47.526;8.538;2022-07-23T06:49:27;96683.47;;;22.34;74.04
73024;BME280;61199;47.526;8.538;2022-07-23T06:51:53;96665.47;;;22.62;73.29
73024;BME280;61199;47.526;8.538;2022-07-23T06:54:19;96674.97;;;22.84;72.18
73024;BME280;61199;47.526;8.538;2022-07-23T06:56:46;96694.28;;;22.80;71.25
73024;BME280;61199;47.526;8.538;2022-07-23T06:59:12;96707.88;;;22.25;72.68
73024;BME280;61199;47.526;8.538;2022-07-23T07:01:38;96715.78;;;21.16;76.40
73024;BME280;61199;47.526;8.538;2022-07-23T07:04:05;96733.06;;;21.00;77.79
73024;BME280;61199;47.526;8.538;2022-07-23T07:06:31;96740.31;;;21.12;78.09
73024;BME280;61199;47.526;8.538;2022-07-23T07:08:58;96739.47;;;21.05;77.54
73024;BME280;61199;47.526;8.538;2022-07-23T07:11:25;96730.59;;;21.25;77.42
73024;BME280;61199;47.526;8.538;2022-07-23T07:13:51;96723.00;;;21.22;77.61
73024;BME280;61199;47.526;8.538;2022-07-23T07:16:18;96717.28;;;21.25;77.74
73024;BME280;61199;47.526;8.538;2022-07-23T07:18:45;96732.19;;;21.41;77.48
73024;BME280;61199;47.526;8.538;2022-07-23T07:21:11;96740.25;;;21.26;77.81
73024;BME280;61199;47.526;8.538;2022-07-23T07:23:38;96740.69;;;21.30;78.56
73024;BME280;61199;47.526;8.538;2022-07-23T07:26:04;96737.97;;;21.23;78.89
73024;BME280;61199;47.526;8.538;2022-07-23T07:28:31;96749.81;;;20.94;79.21
73024;BME280;61199;47.526;8.538;2022-07-23T07:30:57;96752.63;;;20.92;79.42
73024;BME280;61199;47.526;8.538;2022-07-23T07:33:24;96753.97;;;21.03;78.62
73024;BME280;61199;47.526;8.538;2022-07-23T07:35:50;96762.72;;;21.17;78.66
73024;BME280;61199;47.526;8.538;2022-07-23T07:38:16;96763.09;;;21.14;78.49
73024;BME280;61199;47.526;8.538;2022-07-23T07:40:43;96757.59;;;21.16;77.79
73024;BME280;61199;47.526;8.538;2022-07-23T07:43:10;96742.69;;;21.21;77.18
73024;BME280;61199;47.526;8.538;2022-07-23T07:45:36;96743.84;;;21.40;76.61
73024;BME280;61199;47.526;8.538;2022-07-23T07:48:04;96744.69;;;21.40;76.30
73024;BME280;61199;47.526;8.538;2022-07-23T07:50:30;96746.31;;;21.41;76.32
73024;BME280;61199;47.526;8.538;2022-07-23T07:52:57;96740.09;;;21.34;77.14
73024;BME280;61199;47.526;8.538;2022-07-23T07:55:23;96741.53;;;21.30;77.66
73024;BME280;61199;47.526;8.538;2022-07-23T07:57:50;96739.22;;;21.48;77.48
73024;BME280;61199;47.526;8.538;2022-07-23T08:00:16;96753.94;;;21.65;77.16
73024;BME280;61199;47.526;8.538;2022-07-23T08:02:45;96763.66;;;21.79;77.08
73024;BME280;61199;47.526;8.538;2022-07-23T08:05:13;96756.59;;;21.65;78.10
73024;BME280;61199;47.526;8.538;2022-07-23T08:07:40;96748.72;;;21.57;78.00
73024;BME280;61199;47.526;8.538;2022-07-23T08:10:07;96750.16;;;21.60;78.58
73024;BME280;61199;47.526;8.538;2022-07-23T08:12:39;96736.06;;;21.66;78.20
73024;BME280;61199;47.526;8.538;2022-07-23T08:15:07;96741.94;;;21.82;77.27
73024;BME280;61199;47.526;8.538;2022-07-23T08:17:39;96746.44;;;21.82;78.23
73024;BME280;61199;47.526;8.538;2022-07-23T08:20:07;96728.00;;;21.87;77.59
73024;BME280;61199;47.526;8.538;2022-07-23T08:25:24;96742.72;;;21.76;78.35
73024;BME280;61199;47.526;8.538;2022-07-23T08:27:51;96739.00;;;21.71;78.80
73024;BME280;61199;47.526;8.538;2022-07-23T08:30:18;96733.41;;;21.66;79.25
73024;BME280;61199;47.526;8.538;2022-07-23T08:32:59;96754.56;;;21.67;79.17
73024;BME280;61199;47.526;8.538;2022-07-23T08:35:34;96746.94;;;21.43;79.91
73024;BME280;61199;47.526;8.538;2022-07-23T08:38:04;96749.81;;;21.42;79.35
73024;BME280;61199;47.526;8.538;2022-07-23T08:40:33;96751.34;;;21.30;79.42
73024;BME280;61199;47.526;8.538;2022-07-23T08:43:11;96742.78;;;21.34;79.87
73024;BME280;61199;47.526;8.538;2022-07-23T08:45:39;96749.38;;;21.38;79.52
73024;BME280;61199;47.526;8.538;2022-07-23T08:48:11;96747.81;;;21.50;79.65
73024;BME280;61199;47.526;8.538;2022-07-23T08:50:42;96749.16;;;21.61;79.12
73024;BME280;61199;47.526;8.538;2022-07-23T08:53:09;96748.53;;;21.59;79.16
73024;BME280;61199;47.526;8.538;2022-07-23T08:55:36;96749.63;;;21.64;79.49
73024;BME280;61199;47.526;8.538;2022-07-23T08:58:02;96762.81;;;21.72;79.14
73024;BME280;61199;47.526;8.538;2022-07-23T09:00:29;96762.47;;;21.61;79.39
73024;BME280;61199;47.526;8.538;2022-07-23T09:02:55;96763.19;;;21.69;80.01
73024;BME280;61199;47.526;8.538;2022-07-23T09:05:22;96771.06;;;21.84;79.70
73024;BME280;61199;47.526;8.538;2022-07-23T09:08:14;96759.06;;;22.01;78.86
73024;BME280;61199;47.526;8.538;2022-07-23T09:10:49;96747.03;;;22.11;77.80
73024;BME280;61199;47.526;8.538;2022-07-23T09:16:14;96745.13;;;22.05;78.78
73024;BME280;61199;47.526;8.538;2022-07-23T09:23:43;96745.44;;;22.70;77.22
73024;BME280;61199;47.526;8.538;2022-07-23T09:32:00;96759.63;;;22.77;76.43
73024;BME280;61199;47.526;8.538;2022-07-23T09:34:29;96753.69;;;22.82;76.94
73024;BME280;61199;47.526;8.538;2022-07-23T09:37:17;96746.88;;;22.73;76.20
73024;BME280;61199;47.526;8.538;2022-07-23T09:39:46;96739.47;;;22.68;76.10
73024;BME280;61199;47.526;8.538;2022-07-23T09:42:20;96751.09;;;22.41;75.50
73024;BME280;61199;47.526;8.538;2022-07-23T09:44:49;96753.25;;;22.25;75.91
73024;BME280;61199;47.526;8.538;2022-07-23T09:47:17;96754.72;;;21.93;76.67
73024;BME280;61199;47.526;8.538;2022-07-23T09:50:03;96753.31;;;21.97;77.18
73024;BME280;61199;47.526;8.538;2022-07-23T09:52:44;96747.19;;;22.03;77.25
73024;BME280;61199;47.526;8.538;2022-07-23T09:55:12;96759.50;;;22.04;77.47
73024;BME280;61199;47.526;8.538;2022-07-23T09:57:41;96767.97;;;21.80;78.35
73024;BME280;61199;47.526;8.538;2022-07-23T10:00:08;96744.34;;;21.77;78.59
73024;BME280;61199;47.526;8.538;2022-07-23T10:02:37;96757.25;;;22.01;78.79
73024;BME280;61199;47.526;8.538;2022-07-23T10:05:04;96750.84;;;21.96;78.94
73024;BME280;61199;47.526;8.538;2022-07-23T10:07:34;96761.75;;;22.01;77.64
73024;BME280;61199;47.526;8.538;2022-07-23T10:10:04;96753.91;;;21.99;78.62
73024;BME280;61199;47.526;8.538;2022-07-23T10:12:31;96754.75;;;22.00;77.89
73024;BME280;61199;47.526;8.538;2022-07-23T10:15:05;96756.44;;;22.07;77.74
73024;BME280;61199;47.526;8.538;2022-07-23T10:17:35;96761.25;;;22.18;77.40
73024;BME280;61199;47.526;8.538;2022-07-23T10:20:03;96759.75;;;22.09;76.45
73024;BME280;61199;47.526;8.538;2022-07-23T10:22:33;96765.47;;;22.06;76.91
73024;BME280;61199;47.526;8.538;2022-07-23T10:31:08;96768.28;;;21.98;77.57
73024;BME280;61199;47.526;8.538;2022-07-23T10:34:17;96766.63;;;21.97;77.59
73024;BME280;61199;47.526;8.538;2022-07-23T10:39:29;96769.47;;;21.89;78.28
73024;BME280;61199;47.526;8.538;2022-07-23T10:42:13;96765.00;;;21.96;78.02
73024;BME280;61199;47.526;8.538;2022-07-23T10:44:47;96766.91;;;22.09;77.28
73024;BME280;61199;47.526;8.538;2022-07-23T10:47:30;96766.78;;;22.23;76.72
73024;BME280;61199;47.526;8.538;2022-07-23T10:55:41;96779.25;;;22.44;76.43
73024;BME280;61199;47.526;8.538;2022-07-23T10:58:46;96779.06;;;22.11;77.43
73024;BME280;61199;47.526;8.538;2022-07-23T11:01:35;96772.59;;;22.33;77.20
73024;BME280;61199;47.526;8.538;2022-07-23T11:04:03;96771.81;;;22.39;76.38
73024;BME280;61199;47.526;8.538;2022-07-23T11:09:30;96757.22;;;22.95;74.55
73024;BME280;61199;47.526;8.538;2022-07-23T11:15:08;96754.81;;;23.59;72.04
73024;BME280;61199;47.526;8.538;2022-07-23T11:25:28;96747.84;;;24.40;68.81
73024;BME280;61199;47.526;8.538;2022-07-23T11:28:06;96747.72;;;24.29;68.24
73024;BME280;61199;47.526;8.538;2022-07-23T11:30:39;96760.25;;;24.35;68.03
73024;BME280;61199;47.526;8.538;2022-07-23T11:35:37;96743.34;;;24.41;68.78
73024;BME280;61199;47.526;8.538;2022-07-23T11:38:20;96745.97;;;24.47;68.19
73024;BME280;61199;47.526;8.538;2022-07-23T11:40:53;96744.03;;;24.24;69.42
73024;BME280;61199;47.526;8.538;2022-07-23T11:43:21;96748.19;;;24.13;68.47
73024;BME280;61199;47.526;8.538;2022-07-23T11:45:51;96741.03;;;23.94;69.84
73024;BME280;61199;47.526;8.538;2022-07-23T11:48:26;96738.63;;;24.37;69.11
73024;BME280;61199;47.526;8.538;2022-07-23T11:50:54;96736.41;;;24.71;68.18
73024;BME280;61199;47.526;8.538;2022-07-23T11:53:29;96727.63;;;24.95;66.53
73024;BME280;61199;47.526;8.538;2022-07-23T11:56:05;96733.06;;;24.82;65.68
73024;BME280;61199;47.526;8.538;2022-07-23T11:58:33;96736.84;;;24.68;66.10
73024;BME280;61199;47.526;8.538;2022-07-23T12:01:00;96731.09;;;24.64;65.79
73024;BME280;61199;47.526;8.538;2022-07-23T12:03:26;96734.06;;;24.37;66.43
73024;BME280;61199;47.526;8.538;2022-07-23T12:05:58;96724.69;;;24.15;67.07
73024;BME280;61199;47.526;8.538;2022-07-23T12:08:24;96731.16;;;24.51;66.33
73024;BME280;61199;47.526;8.538;2022-07-23T12:10:51;96733.44;;;24.48;66.84
73024;BME280;61199;47.526;8.538;2022-07-23T12:13:20;96723.63;;;24.23;66.21
73024;BME280;61199;47.526;8.538;2022-07-23T12:15:53;96725.16;;;24.06;67.83
73024;BME280;61199;47.526;8.538;2022-07-23T12:18:22;96712.59;;;24.50;66.47
73024;BME280;61199;47.526;8.538;2022-07-23T12:20:51;96719.19;;;24.54;65.60
73024;BME280;61199;47.526;8.538;2022-07-23T12:23:19;96724.34;;;24.55;66.14
73024;BME280;61199;47.526;8.538;2022-07-23T12:25:48;96716.16;;;24.81;65.85
73024;BME280;61199;47.526;8.538;2022-07-23T12:28:28;96711.78;;;25.24;64.89
73024;BME280;61199;47.526;8.538;2022-07-23T12:30:57;96714.16;;;25.32;64.44
73024;BME280;61199;47.526;8.538;2022-07-23T12:33:49;96711.50;;;25.57;62.97
73024;BME280;61199;47.526;8.538;2022-07-23T12:36:17;96712.66;;;25.85;63.21
73024;BME280;61199;47.526;8.538;2022-07-23T12:38:47;96709.72;;;26.11;61.93
73024;BME280;61199;47.526;8.538;2022-07-23T12:41:17;96717.41;;;26.26;60.10
73024;BME280;61199;47.526;8.538;2022-07-23T12:43:45;96713.50;;;25.86;60.95
73024;BME280;61199;47.526;8.538;2022-07-23T12:46:15;96706.56;;;25.96;61.50
73024;BME280;61199;47.526;8.538;2022-07-23T12:51:39;96702.19;;;25.35;61.97
73024;BME280;61199;47.526;8.538;2022-07-23T12:54:12;96698.78;;;25.70;61.58
73024;BME280;61199;47.526;8.538;2022-07-23T12:56:40;96701.16;;;26.03;60.91
73024;BME280;61199;47.526;8.538;2022-07-23T12:59:12;96701.28;;;26.26;60.46
73024;BME280;61199;47.526;8.538;2022-07-23T13:01:45;96689.41;;;26.51;60.21
73024;BME280;61199;47.526;8.538;2022-07-23T13:04:21;96689.63;;;26.68;59.27
73024;BME280;61199;47.526;8.538;2022-07-23T13:06:56;96686.72;;;26.81;58.12
73024;BME280;61199;47.526;8.538;2022-07-23T13:09:32;96690.94;;;27.18;57.67
73024;BME280;61199;47.526;8.538;2022-07-23T13:12:07;96687.22;;;27.19;57.47
73024;BME280;61199;47.526;8.538;2022-07-23T13:14:35;96683.31;;;26.74;57.45
73024;BME280;61199;47.526;8.538;2022-07-23T13:17:02;96676.03;;;26.63;57.52
73024;BME280;61199;47.526;8.538;2022-07-23T13:19:32;96680.44;;;26.39;57.87
73024;BME280;61199;47.526;8.538;2022-07-23T13:21:58;96668.00;;;26.27;58.53
73024;BME280;61199;47.526;8.538;2022-07-23T13:24:27;96670.25;;;26.30;58.00
73024;BME280;61199;47.526;8.538;2022-07-23T13:26:53;96663.72;;;26.55;56.97
73024;BME280;61199;47.526;8.538;2022-07-23T13:29:20;96665.16;;;26.99;56.78
73024;BME280;61199;47.526;8.538;2022-07-23T13:31:47;96665.72;;;27.01;55.93
73024;BME280;61199;47.526;8.538;2022-07-23T13:34:16;96676.38;;;27.25;55.51
73024;BME280;61199;47.526;8.538;2022-07-23T13:36:43;96666.19;;;27.62;54.50
73024;BME280;61199;47.526;8.538;2022-07-23T13:39:10;96661.84;;;27.49;55.02
73024;BME280;61199;47.526;8.538;2022-07-23T13:41:37;96657.75;;;27.47;54.49
73024;BME280;61199;47.526;8.538;2022-07-23T13:44:04;96652.72;;;27.62;54.34
73024;BME280;61199;47.526;8.538;2022-07-23T13:46:32;96654.94;;;27.65;54.27
73024;BME280;61199;47.526;8.538;2022-07-23T13:49:00;96648.13;;;27.73;54.33
73024;BME280;61199;47.526;8.538;2022-07-23T13:51:27;96650.63;;;27.98;53.81
73024;BME280;61199;47.526;8.538;2022-07-23T13:53:54;96644.56;;;28.30;53.09
73024;BME280;61199;47.526;8.538;2022-07-23T13:56:20;96647.75;;;28.55;52.31